createdAt,value
2017-12-20T00:04:43.963Z,43.33
2017-12-20T00:09:45.638Z,44.50
2017-12-20T00:14:47.893Z,42.63
2017-12-20T00:19:49.512Z,42.50
2017-12-20T00:24:51.051Z,39.50
2017-12-20T00:29:53.644Z,42.13
2017-12-20T00:34:55.243Z,41.03
2017-12-20T00:39:57.454Z,42.90
2017-12-20T00:45:00.182Z,35.60
2017-12-20T00:50:02.196Z,37.17
2017-12-20T00:55:03.823Z,29.17
2017-12-20T01:00:05.048Z,33.20
2017-12-20T01:05:06.237Z,31.50
2017-12-20T01:10:07.480Z,38.20
2017-12-20T01:15:09.429Z,28.07
2017-12-20T01:20:10.679Z,26.03
2017-12-20T01:25:12.629Z,20.90
2017-12-20T01:30:13.844Z,23.07
2017-12-20T01:35:15.065Z,17.73
2017-12-20T01:40:16.281Z,18.57
2017-12-20T01:45:17.485Z,17.53
2017-12-20T01:50:18.706Z,18.37
2017-12-20T01:55:19.904Z,16.07
2017-12-20T02:00:21.117Z,13.80
2017-12-20T02:05:22.324Z,13.73
2017-12-20T02:10:23.547Z,14.20
2017-12-20T02:15:24.758Z,13.13
2017-12-20T02:20:25.999Z,14.37
2017-12-20T02:25:27.222Z,10.67
2017-12-20T02:30:28.450Z,10.97
2017-12-20T02:35:29.645Z,9.10
2017-12-20T02:40:30.863Z,8.60
2017-12-20T02:45:32.054Z,7.67
2017-12-20T02:50:34.014Z,8.90
2017-12-20T02:55:35.226Z,11.60
2017-12-20T03:00:36.458Z,11.80
2017-12-20T03:05:37.662Z,14.40
2017-12-20T03:10:38.870Z,15.20
2017-12-20T03:15:40.073Z,11.27
2017-12-20T03:20:41.276Z,10.97
2017-12-20T03:25:43.218Z,11.40
2017-12-20T03:30:44.478Z,8.90
2017-12-20T03:35:46.445Z,9.10
2017-12-20T03:40:47.686Z,12.27
2017-12-20T03:45:48.885Z,7.50
2017-12-20T03:50:50.123Z,7.93
2017-12-20T03:55:51.313Z,8.00
2017-12-20T04:00:52.513Z,7.60
2017-12-20T04:05:54.455Z,9.80
2017-12-20T04:10:55.676Z,8.53
2017-12-20T04:15:56.903Z,10.43
2017-12-20T04:20:58.173Z,10.03
2017-12-20T04:25:59.409Z,10.47
2017-12-20T04:31:00.616Z,13.00
2017-12-20T04:36:01.846Z,8.53
2017-12-20T04:41:03.079Z,7.83
2017-12-20T04:46:04.261Z,7.77
2017-12-20T04:51:05.504Z,6.33
2017-12-20T04:56:07.436Z,7.33
2017-12-20T05:01:08.645Z,6.73
2017-12-20T05:06:09.833Z,7.57
2017-12-20T05:11:11.101Z,8.03
2017-12-20T05:16:12.318Z,7.30
2017-12-20T05:21:13.544Z,6.67
2017-12-20T05:26:14.769Z,6.07
2017-12-20T05:31:15.986Z,11.60
2017-12-20T05:36:17.214Z,8.40
2017-12-20T05:41:18.408Z,5.40
2017-12-20T05:46:19.602Z,5.87
2017-12-20T05:51:20.810Z,5.30
2017-12-20T05:56:22.032Z,12.60
2017-12-20T06:01:23.987Z,5.83
2017-12-20T06:06:25.214Z,5.97
2017-12-20T06:11:26.451Z,6.43
2017-12-20T06:16:27.641Z,7.10
2017-12-20T06:21:28.896Z,8.47
2017-12-20T06:26:30.874Z,6.40
2017-12-20T06:31:32.053Z,10.90
2017-12-20T06:36:34.016Z,12.63
2017-12-20T06:41:35.225Z,6.83
2017-12-20T06:46:36.425Z,11.40
2017-12-20T06:51:37.629Z,10.27
2017-12-20T06:56:39.615Z,10.20
2017-12-20T07:01:40.842Z,9.03
2017-12-20T07:06:42.814Z,7.83
2017-12-20T07:11:44.015Z,7.70
2017-12-20T07:16:46.001Z,10.90
2017-12-20T07:21:47.196Z,10.20
2017-12-20T07:26:48.393Z,7.40
2017-12-20T07:31:50.329Z,10.40
2017-12-20T07:36:51.537Z,10.40
2017-12-20T07:41:52.721Z,12.33
2017-12-20T07:46:53.921Z,12.03
2017-12-20T07:51:55.222Z,8.27
2017-12-20T07:56:56.439Z,8.57
2017-12-20T08:01:58.369Z,8.80
2017-12-20T08:06:59.578Z,10.27
2017-12-20T08:12:00.774Z,7.47
2017-12-20T08:17:01.961Z,9.67
2017-12-20T08:22:03.171Z,7.80
2017-12-20T08:27:04.390Z,7.30
2017-12-20T08:32:05.586Z,10.33
2017-12-20T08:37:06.794Z,9.03
2017-12-20T08:42:07.965Z,9.10
2017-12-20T08:47:09.141Z,8.23
2017-12-20T08:52:10.371Z,8.07
2017-12-20T08:57:11.566Z,7.13
2017-12-20T09:02:12.789Z,8.90
2017-12-20T09:07:13.969Z,7.27
2017-12-20T09:12:15.907Z,6.40
2017-12-20T09:17:17.163Z,6.40
2017-12-20T09:22:19.128Z,10.93
2017-12-20T09:27:20.342Z,10.30
2017-12-20T09:32:22.300Z,7.07
2017-12-20T09:37:23.535Z,10.60
2017-12-20T09:42:25.461Z,6.23
2017-12-20T09:47:26.649Z,10.13
2017-12-20T09:52:27.880Z,12.20
2017-12-20T09:57:29.121Z,10.13
2017-12-20T10:02:30.337Z,7.17
2017-12-20T10:07:32.389Z,15.10
2017-12-20T10:12:34.345Z,16.40
2017-12-20T10:17:35.537Z,37.50
2017-12-20T10:22:36.741Z,33.30
2017-12-20T10:27:37.961Z,11.80
2017-12-20T10:32:39.949Z,9.20
2017-12-20T10:37:41.173Z,8.60
2017-12-20T10:42:42.407Z,7.80
2017-12-20T10:47:43.723Z,7.03
2017-12-20T10:52:44.950Z,8.57
2017-12-20T10:57:46.189Z,6.70
2017-12-20T11:02:48.374Z,7.10
2017-12-20T11:07:49.600Z,8.20
2017-12-20T11:12:51.570Z,9.87
2017-12-20T11:17:52.785Z,8.23
2017-12-20T11:22:54.717Z,14.30
2017-12-20T11:27:56.109Z,11.30
2017-12-20T11:32:57.305Z,10.50
2017-12-20T11:37:58.510Z,10.93
2017-12-20T11:42:59.724Z,12.50
2017-12-20T11:48:00.938Z,13.20
2017-12-20T11:53:02.208Z,12.87
2017-12-20T11:58:04.168Z,12.13
2017-12-20T12:03:05.408Z,12.87
2017-12-20T12:08:07.419Z,12.30
2017-12-20T12:13:08.764Z,14.30
2017-12-20T12:18:09.977Z,17.80
2017-12-20T12:23:11.270Z,13.20
2017-12-20T12:28:13.220Z,16.23
2017-12-20T12:33:14.430Z,14.87
2017-12-20T12:38:15.669Z,17.13
2017-12-20T12:43:16.929Z,23.97
2017-12-20T12:48:18.099Z,19.63
2017-12-20T12:53:19.325Z,19.70
2017-12-20T12:58:20.555Z,16.33
2017-12-20T13:03:21.810Z,16.27
2017-12-20T13:08:23.039Z,18.70
2017-12-20T13:13:24.592Z,21.57
2017-12-20T13:18:25.864Z,21.30
2017-12-20T13:23:27.090Z,20.03
2017-12-20T13:28:28.918Z,27.03
2017-12-20T13:33:30.247Z,28.20
2017-12-20T13:38:31.483Z,28.90
2017-12-20T13:43:32.684Z,33.90
2017-12-20T13:48:33.901Z,23.23
2017-12-20T13:53:35.168Z,29.13
2017-12-20T13:58:36.393Z,23.47
2017-12-20T14:03:37.606Z,31.83
2017-12-20T14:08:38.810Z,25.57
2017-12-20T14:13:40.144Z,26.73
2017-12-20T14:18:41.437Z,23.70
2017-12-20T14:23:42.678Z,24.30
2017-12-20T14:28:43.909Z,25.50
2017-12-20T14:33:45.164Z,22.93
2017-12-20T14:38:46.395Z,26.03
2017-12-20T14:43:54.445Z,25.93
2017-12-20T14:48:55.621Z,23.63
2017-12-20T14:53:56.855Z,21.90
2017-12-20T14:58:58.075Z,27.47
2017-12-20T15:04:00.045Z,24.00
2017-12-20T15:09:01.279Z,21.20
2017-12-20T15:14:02.505Z,21.90
2017-12-20T15:19:03.718Z,22.47
2017-12-20T15:24:04.938Z,24.70
2017-12-20T15:29:06.164Z,22.97
2017-12-20T15:34:07.393Z,25.67
2017-12-20T15:39:09.337Z,29.03
2017-12-20T15:44:10.556Z,43.70
2017-12-20T15:49:11.772Z,27.20
2017-12-20T15:54:13.765Z,31.80
2017-12-20T15:59:14.967Z,26.70
2017-12-20T16:04:16.931Z,27.60
2017-12-20T16:09:18.141Z,30.43
2017-12-20T16:14:19.379Z,47.10
2017-12-20T16:19:20.637Z,36.83
2017-12-20T16:24:22.605Z,31.67
2017-12-20T16:29:23.821Z,33.70
2017-12-20T16:34:25.816Z,37.93
2017-12-20T16:39:27.038Z,38.17
2017-12-20T16:44:28.272Z,48.40
2017-12-20T16:49:29.494Z,40.50
2017-12-20T16:54:31.447Z,48.00
2017-12-20T16:59:32.630Z,40.37
2017-12-20T17:04:33.831Z,45.03
2017-12-20T17:09:35.066Z,50.70
2017-12-20T17:14:36.264Z,40.90
2017-12-20T17:19:37.499Z,37.33
2017-12-20T17:24:38.708Z,40.50
2017-12-20T17:29:40.636Z,31.40
2017-12-20T17:34:41.887Z,35.00
2017-12-20T17:39:43.147Z,38.93
2017-12-20T17:44:44.371Z,40.57
2017-12-20T17:49:46.394Z,37.73
2017-12-20T17:54:48.529Z,30.07
2017-12-20T17:59:49.748Z,36.33
2017-12-20T18:04:50.974Z,32.10
2017-12-20T18:09:52.916Z,29.93
2017-12-20T18:14:54.142Z,32.37
2017-12-20T18:19:56.274Z,31.70
2017-12-20T18:24:59.755Z,33.00
2017-12-20T18:30:01.001Z,38.70
2017-12-20T18:35:03.746Z,38.90
2017-12-20T18:40:05.001Z,37.60
2017-12-20T18:45:07.317Z,47.27
2017-12-20T18:50:11.398Z,46.90
2017-12-20T18:55:12.721Z,49.00
2017-12-20T19:00:13.946Z,45.60
2017-12-20T19:05:16.209Z,48.80
2017-12-20T19:10:17.572Z,50.83
2017-12-20T19:15:18.838Z,60.40
2017-12-20T19:20:20.786Z,50.73
2017-12-20T19:25:24.514Z,51.40
2017-12-20T19:30:25.902Z,50.90
2017-12-20T19:35:27.270Z,54.47
2017-12-20T19:40:28.886Z,79.90
2017-12-20T19:45:30.510Z,60.07
2017-12-20T19:50:31.736Z,62.77
2017-12-20T19:55:34.175Z,65.53
2017-12-20T20:00:35.777Z,61.60
2017-12-20T20:05:37.416Z,87.57
2017-12-20T20:10:39.081Z,66.67
2017-12-20T20:15:40.305Z,74.77
2017-12-20T20:20:41.926Z,77.57
2017-12-20T20:25:43.305Z,91.77
2017-12-20T20:30:45.696Z,88.73
2017-12-20T20:35:46.911Z,94.83
2017-12-20T20:40:50.610Z,117.07
2017-12-20T20:45:51.805Z,97.47
2017-12-20T20:50:52.978Z,85.63
2017-12-20T20:55:54.361Z,91.70
2017-12-20T21:00:55.957Z,97.27
2017-12-20T21:05:57.510Z,90.07
2017-12-20T21:10:58.818Z,74.23
2017-12-20T21:16:00.759Z,80.07
2017-12-20T21:21:02.214Z,75.43
2017-12-20T21:26:05.159Z,83.47
2017-12-20T21:31:07.616Z,91.03
2017-12-20T21:36:10.416Z,69.90
2017-12-20T21:41:12.423Z,73.67
2017-12-20T21:46:13.609Z,82.93
2017-12-20T21:51:14.883Z,76.60
2017-12-20T21:56:16.214Z,73.20
2017-12-20T22:01:17.442Z,79.07
2017-12-20T22:06:18.636Z,72.07
2017-12-20T22:11:19.856Z,69.93
2017-12-20T22:16:21.103Z,78.33
2017-12-20T22:21:22.374Z,59.80
2017-12-20T22:26:25.349Z,44.87
2017-12-20T22:31:26.530Z,53.20
2017-12-20T22:36:27.782Z,48.17
2017-12-20T22:41:29.703Z,61.93
2017-12-20T22:46:30.910Z,57.40
2017-12-20T22:51:32.125Z,51.97
2017-12-20T22:56:33.417Z,51.17
2017-12-20T23:01:34.646Z,61.17
2017-12-20T23:06:35.818Z,56.17
2017-12-20T23:11:37.010Z,55.97
2017-12-20T23:16:38.941Z,43.60
2017-12-20T23:21:40.127Z,52.67
2017-12-20T23:26:41.405Z,59.37
2017-12-20T23:31:42.634Z,47.77
2017-12-20T23:36:43.857Z,51.10
2017-12-20T23:41:45.972Z,57.33
2017-12-20T23:46:47.903Z,59.13
2017-12-20T23:51:49.106Z,63.67
2017-12-20T23:56:50.330Z,56.93
